createdAt,value
2022-12-14T00:02:06.688Z,120.20
2022-12-14T00:04:35.149Z,115.13
2022-12-14T00:07:03.487Z,111.73
2022-12-14T00:09:31.704Z,105.67
2022-12-14T00:12:00.186Z,98.57
2022-12-14T00:14:29.802Z,99.93
2022-12-14T00:16:58.179Z,111.85
2022-12-14T00:19:26.828Z,105.93
2022-12-14T00:21:55.057Z,97.47
2022-12-14T00:24:23.279Z,92.40
2022-12-14T00:26:51.622Z,93.03
2022-12-14T00:29:19.902Z,93.53
2022-12-14T00:31:51.149Z,100.07
2022-12-14T00:34:19.430Z,91.73
2022-12-14T00:36:47.657Z,91.07
2022-12-14T00:39:16.013Z,97.83
2022-12-14T00:41:44.477Z,89.70
2022-12-14T00:44:12.706Z,101.37
2022-12-14T00:46:41.374Z,97.20
2022-12-14T00:49:11.861Z,100.20
2022-12-14T00:51:40.311Z,96.00
2022-12-14T00:54:08.568Z,90.33
2022-12-14T00:56:36.856Z,99.77
2022-12-14T00:59:05.367Z,99.77
2022-12-14T01:01:33.737Z,109.93
2022-12-14T01:04:16.064Z,89.07
2022-12-14T01:06:47.167Z,96.70
2022-12-14T01:09:15.652Z,94.30
2022-12-14T01:11:44.691Z,105.23
2022-12-14T01:14:16.071Z,95.23
2022-12-14T01:16:44.512Z,97.53
2022-12-14T01:19:14.459Z,98.13
2022-12-14T01:21:43.292Z,90.13
2022-12-14T01:24:12.914Z,101.07
2022-12-14T01:26:41.840Z,100.67
2022-12-14T01:29:11.468Z,89.80
2022-12-14T01:31:40.250Z,104.70
2022-12-14T01:34:09.485Z,105.10
2022-12-14T01:36:38.917Z,107.23
2022-12-14T01:39:14.461Z,104.23
2022-12-14T01:41:45.396Z,96.33
2022-12-14T01:44:58.160Z,91.40
2022-12-14T01:47:38.892Z,97.07
2022-12-14T01:50:14.330Z,98.63
2022-12-14T01:52:46.636Z,95.27
2022-12-14T01:55:22.076Z,92.67
2022-12-14T01:57:55.699Z,92.13
2022-12-14T02:00:24.564Z,92.00
2022-12-14T02:02:58.822Z,95.07
2022-12-14T02:05:27.924Z,95.53
2022-12-14T02:07:57.454Z,113.80
2022-12-14T02:10:29.387Z,92.37
2022-12-14T02:13:05.789Z,94.97
2022-12-14T02:15:35.955Z,99.57
2022-12-14T02:18:07.246Z,93.27
2022-12-14T02:20:45.175Z,91.77
2022-12-14T02:23:56.131Z,96.07
2022-12-14T02:26:59.502Z,94.33
2022-12-14T02:29:50.366Z,94.10
2022-12-14T02:32:39.791Z,94.50
2022-12-14T02:35:19.137Z,103.53
2022-12-14T02:37:57.335Z,85.87
2022-12-14T02:40:36.277Z,93.17
2022-12-14T02:43:17.564Z,102.23
2022-12-14T02:45:55.890Z,82.37
2022-12-14T02:48:28.222Z,88.70
2022-12-14T02:51:02.779Z,93.97
2022-12-14T02:53:37.825Z,99.13
2022-12-14T02:56:11.603Z,95.37
2022-12-14T02:58:46.564Z,91.40
2022-12-14T03:01:20.759Z,95.40
2022-12-14T03:03:49.557Z,112.33
2022-12-14T03:06:26.936Z,94.40
2022-12-14T03:08:59.935Z,101.33
2022-12-14T03:11:36.702Z,95.23
2022-12-14T03:14:11.845Z,91.00
2022-12-14T03:16:45.537Z,89.13
2022-12-14T03:19:21.034Z,92.57
2022-12-14T03:21:54.681Z,92.17
2022-12-14T03:24:27.443Z,99.37
2022-12-14T03:27:03.574Z,89.23
2022-12-14T03:29:39.356Z,95.20
2022-12-14T03:32:14.089Z,90.87
2022-12-14T03:34:49.512Z,97.30
2022-12-14T03:37:23.673Z,95.80
2022-12-14T03:39:52.638Z,80.97
2022-12-14T03:42:25.338Z,92.87
2022-12-14T03:45:03.535Z,86.30
2022-12-14T03:47:55.175Z,93.37
2022-12-14T03:50:30.939Z,85.60
2022-12-14T03:53:06.901Z,103.27
2022-12-14T03:55:44.249Z,83.43
2022-12-14T03:58:33.833Z,89.87
2022-12-14T04:01:08.837Z,92.33
2022-12-14T04:03:51.222Z,90.57
2022-12-14T04:06:28.763Z,96.20
2022-12-14T04:09:07.393Z,105.40
2022-12-14T04:12:10.796Z,92.57
2022-12-14T04:15:03.684Z,92.97
2022-12-14T04:17:54.810Z,86.60
2022-12-14T04:20:29.926Z,88.70
2022-12-14T04:23:06.517Z,88.27
2022-12-14T04:25:57.565Z,88.90
2022-12-14T04:28:50.593Z,90.77
2022-12-14T04:31:22.686Z,89.27
2022-12-14T04:33:56.003Z,94.17
2022-12-14T04:36:30.486Z,80.33
2022-12-14T04:39:03.972Z,92.93
2022-12-14T04:41:37.764Z,101.83
2022-12-14T04:44:18.426Z,92.67
2022-12-14T04:46:47.941Z,99.73
2022-12-14T04:49:28.244Z,98.33
2022-12-14T04:52:05.988Z,96.60
2022-12-14T04:54:40.062Z,96.93
2022-12-14T04:57:19.119Z,96.17
2022-12-14T04:59:48.459Z,101.00
2022-12-14T05:02:24.646Z,94.77
2022-12-14T05:05:06.561Z,90.57
2022-12-14T05:07:50.913Z,91.27
2022-12-14T05:10:24.215Z,97.30
2022-12-14T05:13:03.004Z,95.53
2022-12-14T05:15:37.163Z,87.67
2022-12-14T05:18:07.145Z,87.30
2022-12-14T05:20:35.358Z,86.77
2022-12-14T05:23:05.021Z,107.22
2022-12-14T05:25:33.226Z,87.13
2022-12-14T05:28:01.545Z,85.20
2022-12-14T05:30:29.893Z,86.83
2022-12-14T05:32:58.720Z,85.37
2022-12-14T05:35:26.985Z,91.77
2022-12-14T05:37:55.268Z,89.23
2022-12-14T05:40:25.558Z,90.73
2022-12-14T05:42:55.876Z,89.00
2022-12-14T05:45:24.390Z,83.13
2022-12-14T05:47:52.616Z,81.23
2022-12-14T05:50:20.871Z,82.73
2022-12-14T05:52:49.147Z,87.90
2022-12-14T05:55:17.519Z,82.17
2022-12-14T05:57:47.206Z,86.07
2022-12-14T06:00:16.923Z,83.60
2022-12-14T06:02:45.468Z,89.23
2022-12-14T06:05:13.812Z,85.83
2022-12-14T06:07:42.015Z,75.23
2022-12-14T06:10:11.126Z,80.53
2022-12-14T06:12:43.698Z,81.80
2022-12-14T06:15:14.082Z,84.47
2022-12-14T06:17:44.461Z,87.00
2022-12-14T06:20:13.679Z,82.77
2022-12-14T06:22:47.420Z,74.63
2022-12-14T06:25:16.306Z,87.73
2022-12-14T06:27:44.513Z,83.47
2022-12-14T06:30:15.741Z,85.93
2022-12-14T06:32:44.000Z,85.23
2022-12-14T06:35:12.528Z,82.77
2022-12-14T06:37:40.869Z,86.37
2022-12-14T06:40:11.127Z,76.07
2022-12-14T06:42:39.440Z,79.57
2022-12-14T06:45:09.128Z,84.20
2022-12-14T06:47:38.928Z,69.97
2022-12-14T06:50:08.075Z,83.00
2022-12-14T06:52:37.533Z,76.23
2022-12-14T06:55:07.736Z,84.97
2022-12-14T06:57:36.354Z,76.80
2022-12-14T07:00:05.770Z,84.17
2022-12-14T07:02:34.302Z,80.53
2022-12-14T07:05:04.397Z,88.17
2022-12-14T07:07:33.698Z,80.93
2022-12-14T07:10:02.411Z,75.93
2022-12-14T07:12:30.699Z,86.33
2022-12-14T07:14:59.716Z,68.97
2022-12-14T07:17:29.104Z,80.40
2022-12-14T07:19:57.426Z,81.37
2022-12-14T07:22:27.111Z,72.53
2022-12-14T07:24:55.439Z,74.90
2022-12-14T07:27:24.811Z,83.10
2022-12-14T07:29:53.346Z,85.60
2022-12-14T07:32:21.899Z,84.17
2022-12-14T07:34:53.751Z,80.60
2022-12-14T07:37:24.362Z,77.80
2022-12-14T07:39:56.293Z,71.10
2022-12-14T07:42:25.022Z,76.10
2022-12-14T07:44:53.775Z,81.17
2022-12-14T07:47:22.189Z,87.03
2022-12-14T07:49:50.798Z,91.00
2022-12-14T07:52:23.056Z,95.50
2022-12-14T07:54:53.625Z,85.07
2022-12-14T07:57:22.518Z,88.97
2022-12-14T07:59:57.137Z,81.50
2022-12-14T08:02:25.856Z,86.83
2022-12-14T08:04:54.325Z,74.20
2022-12-14T08:07:22.674Z,90.23
2022-12-14T08:09:50.926Z,83.03
2022-12-14T08:12:20.644Z,77.40
2022-12-14T08:14:49.995Z,77.43
2022-12-14T08:17:18.311Z,82.47
2022-12-14T08:19:46.562Z,81.47
2022-12-14T08:22:15.089Z,88.17
2022-12-14T08:24:43.438Z,87.93
2022-12-14T08:27:17.886Z,79.20
2022-12-14T08:29:47.591Z,100.03
2022-12-14T08:32:15.995Z,76.13
2022-12-14T08:34:44.570Z,75.83
2022-12-14T08:37:12.798Z,85.40
2022-12-14T08:39:41.044Z,76.27
2022-12-14T08:42:09.323Z,82.33
2022-12-14T08:44:37.673Z,84.30
2022-12-14T08:47:07.387Z,73.97
2022-12-14T08:49:36.077Z,74.37
2022-12-14T08:52:04.335Z,81.07
2022-12-14T08:54:32.837Z,84.67
2022-12-14T08:57:01.221Z,79.03
2022-12-14T08:59:59.391Z,78.13
2022-12-14T09:02:20.937Z,76.07
2022-12-14T09:04:49.617Z,87.30
2022-12-14T09:07:17.988Z,77.10
2022-12-14T09:09:46.267Z,77.80
2022-12-14T09:12:14.546Z,80.20
2022-12-14T09:14:46.492Z,73.23
2022-12-14T09:17:19.864Z,70.90
2022-12-14T09:19:48.128Z,75.53
2022-12-14T09:22:17.098Z,76.73
2022-12-14T09:24:45.459Z,77.33
2022-12-14T09:27:13.735Z,76.33
2022-12-14T09:29:42.062Z,69.97
2022-12-14T09:32:12.952Z,81.73
2022-12-14T09:34:42.680Z,82.37
2022-12-14T09:37:11.096Z,77.00
2022-12-14T09:39:39.372Z,69.13
2022-12-14T09:42:22.187Z,67.57
2022-12-14T09:44:59.806Z,71.40
2022-12-14T09:47:34.195Z,70.77
2022-12-14T09:50:07.732Z,68.23
2022-12-14T09:52:42.013Z,65.57
2022-12-14T09:55:22.783Z,72.67
2022-12-14T09:57:55.156Z,70.57
2022-12-14T10:00:23.730Z,71.87
2022-12-14T10:03:31.969Z,71.97
2022-12-14T10:06:29.206Z,67.23
2022-12-14T10:09:06.899Z,68.00
2022-12-14T10:11:47.235Z,64.13
2022-12-14T10:14:23.339Z,70.37
2022-12-14T10:17:01.011Z,64.67
2022-12-14T10:19:40.689Z,67.73
2022-12-14T10:22:16.494Z,69.33
2022-12-14T10:24:49.172Z,61.03
2022-12-14T10:27:23.777Z,69.87
2022-12-14T10:30:01.249Z,57.03
2022-12-14T10:32:36.693Z,54.23
2022-12-14T10:35:16.125Z,52.50
2022-12-14T10:37:50.319Z,46.37
2022-12-14T10:40:33.820Z,53.43
2022-12-14T10:43:34.557Z,50.57
2022-12-14T10:46:15.015Z,56.20
2022-12-14T10:48:54.641Z,51.50
2022-12-14T10:51:31.757Z,56.73
2022-12-14T10:54:11.803Z,53.37
2022-12-14T10:56:43.403Z,50.50
2022-12-14T10:59:35.150Z,56.77
2022-12-14T11:02:11.148Z,59.03
2022-12-14T11:04:46.191Z,60.40
2022-12-14T11:07:17.418Z,58.27
2022-12-14T11:09:47.583Z,61.17
2022-12-14T11:12:23.607Z,52.03
2022-12-14T11:14:58.442Z,49.23
2022-12-14T11:17:37.103Z,50.57
2022-12-14T11:20:22.215Z,51.67
2022-12-14T11:22:53.451Z,52.17
2022-12-14T11:25:38.569Z,60.47
2022-12-14T11:28:25.668Z,48.90
2022-12-14T11:30:58.997Z,49.83
2022-12-14T11:33:34.299Z,42.53
2022-12-14T11:36:02.865Z,43.30
2022-12-14T11:38:32.827Z,44.53
2022-12-14T11:41:10.986Z,45.27
2022-12-14T11:43:41.211Z,45.37
2022-12-14T11:46:09.739Z,49.70
2022-12-14T11:48:52.125Z,43.07
2022-12-14T11:51:20.684Z,50.40
2022-12-14T11:54:04.277Z,48.80
2022-12-14T11:56:37.822Z,45.73
2022-12-14T11:59:06.192Z,45.17
2022-12-14T12:01:34.698Z,40.90
2022-12-14T12:04:03.918Z,45.63
2022-12-14T12:06:33.156Z,45.70
2022-12-14T12:09:04.350Z,46.93
2022-12-14T12:11:36.969Z,42.37
2022-12-14T12:14:15.018Z,39.03
2022-12-14T12:16:45.857Z,39.43
2022-12-14T12:19:24.325Z,37.37
2022-12-14T12:21:54.924Z,36.97
2022-12-14T12:24:28.409Z,39.33
2022-12-14T12:27:00.228Z,36.93
2022-12-14T12:29:33.083Z,34.73
2022-12-14T12:32:08.790Z,34.83
2022-12-14T12:34:45.428Z,33.00
2022-12-14T12:37:26.418Z,35.73
2022-12-14T12:40:02.130Z,32.70
2022-12-14T12:42:43.310Z,33.53
2022-12-14T12:45:20.781Z,34.70
2022-12-14T12:47:57.145Z,33.53
2022-12-14T12:50:31.678Z,32.10
2022-12-14T12:53:04.544Z,29.80
2022-12-14T12:55:37.771Z,29.47
2022-12-14T12:58:10.382Z,29.63
2022-12-14T13:00:40.652Z,29.10
2022-12-14T13:03:14.745Z,31.23
2022-12-14T13:05:47.227Z,27.40
2022-12-14T13:08:25.368Z,25.30
2022-12-14T13:13:52.704Z,26.07
2022-12-14T13:16:27.759Z,26.70
2022-12-14T13:19:25.423Z,27.90
2022-12-14T13:21:55.113Z,25.47
2022-12-14T13:24:25.595Z,25.93
2022-12-14T13:27:48.273Z,20.37
2022-12-14T13:30:38.735Z,23.20
2022-12-14T13:33:30.212Z,23.43
2022-12-14T13:36:46.856Z,25.37
2022-12-14T13:39:58.098Z,31.07
2022-12-14T13:42:37.581Z,28.00
2022-12-14T13:45:17.227Z,29.57
2022-12-14T13:47:53.974Z,30.40
2022-12-14T13:50:37.003Z,29.90
2022-12-14T13:53:15.073Z,30.13
2022-12-14T13:55:52.080Z,28.00
2022-12-14T13:58:23.872Z,27.37
2022-12-14T14:01:01.307Z,30.23
2022-12-14T14:04:22.412Z,29.33
2022-12-14T14:06:51.906Z,31.97
2022-12-14T14:10:01.278Z,31.40
2022-12-14T14:12:45.052Z,30.90
2022-12-14T14:18:43.046Z,30.07
2022-12-14T14:21:58.957Z,28.80
2022-12-14T14:24:30.250Z,26.87
2022-12-14T14:27:12.237Z,32.77
2022-12-14T14:29:46.401Z,29.53
2022-12-14T14:32:38.691Z,29.93
2022-12-14T14:35:21.186Z,32.53
2022-12-14T14:37:59.523Z,32.50
2022-12-14T14:41:06.372Z,34.17
2022-12-14T14:43:29.591Z,32.30
2022-12-14T14:46:01.660Z,34.97
2022-12-14T14:48:35.259Z,33.07
2022-12-14T14:51:19.124Z,36.10
2022-12-14T14:53:50.264Z,30.27
2022-12-14T14:56:38.149Z,33.63
2022-12-14T14:59:50.535Z,35.53
2022-12-14T15:02:42.258Z,35.53
2022-12-14T15:08:20.024Z,32.83
2022-12-14T15:10:51.489Z,46.87
2022-12-14T15:13:24.590Z,38.37
2022-12-14T15:15:56.638Z,38.40
2022-12-14T15:18:28.629Z,35.97
2022-12-14T15:21:02.150Z,41.23
2022-12-14T15:23:37.572Z,43.07
2022-12-14T15:26:17.212Z,43.63
2022-12-14T15:28:50.573Z,45.00
2022-12-14T15:31:21.161Z,40.30
2022-12-14T15:33:50.390Z,44.00
2022-12-14T15:36:20.530Z,46.47
2022-12-14T15:38:55.261Z,44.70
2022-12-14T15:41:27.585Z,43.80
2022-12-14T15:44:00.098Z,46.83
2022-12-14T15:46:30.817Z,48.90
2022-12-14T15:49:01.110Z,52.55
2022-12-14T15:51:33.780Z,49.07
2022-12-14T15:54:05.161Z,50.13
2022-12-14T15:56:38.052Z,44.23
2022-12-14T15:59:16.940Z,55.03
2022-12-14T16:01:54.252Z,54.77
2022-12-14T16:04:27.705Z,46.80
2022-12-14T16:07:08.194Z,55.17
2022-12-14T16:09:41.154Z,57.47
2022-12-14T16:12:19.072Z,55.70
2022-12-14T16:14:54.390Z,51.30
2022-12-14T16:17:26.596Z,50.97
2022-12-14T16:20:00.287Z,51.23
2022-12-14T16:22:31.231Z,54.40
2022-12-14T16:25:18.088Z,50.40
2022-12-14T16:27:50.444Z,49.00
2022-12-14T16:30:24.016Z,52.83
2022-12-14T16:32:55.291Z,51.03
2022-12-14T16:35:26.030Z,51.53
2022-12-14T16:37:56.494Z,52.50
2022-12-14T16:40:34.832Z,57.10
2022-12-14T16:43:07.508Z,54.33
2022-12-14T16:46:15.036Z,52.27
2022-12-14T16:48:50.237Z,51.63
2022-12-14T16:52:05.058Z,61.43
2022-12-14T16:54:26.802Z,54.33
2022-12-14T16:56:59.956Z,48.40
2022-12-14T16:59:41.792Z,47.57
2022-12-14T17:02:32.020Z,50.30
2022-12-14T17:05:04.890Z,48.03
2022-12-14T17:07:34.288Z,51.27
2022-12-14T17:10:02.564Z,49.30
2022-12-14T17:12:30.902Z,48.60
2022-12-14T17:15:00.826Z,47.53
2022-12-14T17:17:34.412Z,50.63
2022-12-14T17:20:07.898Z,45.63
2022-12-14T17:22:38.982Z,47.47
2022-12-14T17:25:08.228Z,53.37
2022-12-14T17:27:36.612Z,51.08
2022-12-14T17:30:08.727Z,48.40
2022-12-14T17:32:37.231Z,48.53
2022-12-14T17:35:09.135Z,51.73
2022-12-14T17:37:37.628Z,47.07
2022-12-14T17:40:08.054Z,51.05
2022-12-14T17:42:39.147Z,42.40
2022-12-14T17:45:21.846Z,39.77
2022-12-14T17:47:50.521Z,41.23
2022-12-14T17:50:20.223Z,43.33
2022-12-14T17:52:50.276Z,48.33
2022-12-14T17:55:21.163Z,46.80
2022-12-14T17:57:50.763Z,41.97
2022-12-14T18:00:41.223Z,41.27
2022-12-14T18:03:12.697Z,57.97
2022-12-14T18:05:48.625Z,42.60
2022-12-14T18:08:17.872Z,41.07
2022-12-14T18:10:47.083Z,45.50
2022-12-14T18:13:15.810Z,41.13
2022-12-14T18:15:49.847Z,43.30
2022-12-14T18:18:27.606Z,42.97
2022-12-14T18:21:00.349Z,39.30
2022-12-14T18:23:30.729Z,39.87
2022-12-14T18:26:02.775Z,36.03
2022-12-14T18:28:31.040Z,44.07
2022-12-14T18:31:04.524Z,44.27
2022-12-14T18:33:34.533Z,42.63
2022-12-14T18:36:03.331Z,42.27
2022-12-14T18:38:35.612Z,37.20
2022-12-14T18:41:04.147Z,41.63
2022-12-14T18:43:36.748Z,46.77
2022-12-14T18:46:10.073Z,47.57
2022-12-14T18:48:39.030Z,43.23
2022-12-14T18:51:08.653Z,44.03
2022-12-14T18:53:36.997Z,43.20
2022-12-14T18:56:10.512Z,46.55
2022-12-14T18:58:42.127Z,43.50
2022-12-14T19:01:18.183Z,43.93
2022-12-14T19:03:46.932Z,45.90
2022-12-14T19:06:43.687Z,42.83
2022-12-14T19:09:06.496Z,44.07
2022-12-14T19:11:39.480Z,44.70
2022-12-14T19:14:08.034Z,40.30
2022-12-14T19:16:37.968Z,38.23
2022-12-14T19:19:06.346Z,44.47
2022-12-14T19:21:34.632Z,46.63
2022-12-14T19:24:04.603Z,45.03
2022-12-14T19:26:32.951Z,45.67
2022-12-14T19:29:01.435Z,42.65
2022-12-14T19:31:30.293Z,45.78
2022-12-14T19:34:00.080Z,42.43
2022-12-14T19:36:28.338Z,40.73
2022-12-14T19:38:57.297Z,44.73
2022-12-14T19:41:25.655Z,42.40
2022-12-14T19:43:56.744Z,41.20
2022-12-14T19:46:25.380Z,38.37
2022-12-14T19:48:53.872Z,39.43
2022-12-14T19:51:23.515Z,41.43
2022-12-14T19:53:52.928Z,44.83
2022-12-14T19:56:21.332Z,51.07
2022-12-14T19:58:50.423Z,40.50
2022-12-14T20:01:19.309Z,41.03
2022-12-14T20:03:49.100Z,35.30
2022-12-14T20:06:17.457Z,36.13
2022-12-14T20:08:49.628Z,38.90
2022-12-14T20:11:18.291Z,38.50
2022-12-14T20:13:49.427Z,38.80
2022-12-14T20:16:22.591Z,37.87
2022-12-14T20:18:50.952Z,38.70
2022-12-14T20:21:22.394Z,39.53
2022-12-14T20:23:52.282Z,35.50
2022-12-14T20:26:23.317Z,34.80
2022-12-14T20:28:54.851Z,37.80
2022-12-14T20:31:24.219Z,35.57
2022-12-14T20:33:53.078Z,34.43
2022-12-14T20:36:22.601Z,33.93
2022-12-14T20:38:57.797Z,31.93
2022-12-14T20:41:26.823Z,34.90
2022-12-14T20:43:57.220Z,32.33
2022-12-14T20:46:29.732Z,32.63
2022-12-14T20:49:01.500Z,37.30
2022-12-14T20:51:31.889Z,30.77
2022-12-14T20:54:02.527Z,30.90
2022-12-14T20:56:30.935Z,28.87
2022-12-14T20:58:59.577Z,31.23
2022-12-14T21:01:28.439Z,35.37
2022-12-14T21:03:57.724Z,34.47
2022-12-14T21:06:26.284Z,30.87
2022-12-14T21:09:05.379Z,32.65
2022-12-14T21:11:55.002Z,30.63
2022-12-14T21:14:25.652Z,31.10
2022-12-14T21:16:54.371Z,31.20
2022-12-14T21:19:23.259Z,30.33
2022-12-14T21:21:54.068Z,29.30
2022-12-14T21:25:00.995Z,30.43
2022-12-14T21:27:19.117Z,32.40
2022-12-14T21:29:48.379Z,32.25
2022-12-14T21:32:18.210Z,29.27
2022-12-14T21:34:47.522Z,30.50
2022-12-14T21:37:16.531Z,32.50
2022-12-14T21:39:51.959Z,32.43
2022-12-14T21:42:24.028Z,31.77
2022-12-14T21:44:54.300Z,31.33
2022-12-14T21:47:26.353Z,36.47
2022-12-14T21:49:55.724Z,33.27
2022-12-14T21:52:28.247Z,29.90
2022-12-14T21:54:58.991Z,32.00
2022-12-14T21:57:49.421Z,35.47
2022-12-14T22:00:19.896Z,34.27
2022-12-14T22:02:48.341Z,32.33
2022-12-14T22:05:17.121Z,33.37
2022-12-14T22:07:45.400Z,35.20
2022-12-14T22:10:13.699Z,31.40
2022-12-14T22:12:43.407Z,33.30
2022-12-14T22:15:12.304Z,32.53
2022-12-14T22:17:40.612Z,32.67
2022-12-14T22:20:11.100Z,33.23
2022-12-14T22:22:40.312Z,33.23
2022-12-14T22:25:09.792Z,31.80
2022-12-14T22:27:38.081Z,32.93
2022-12-14T22:30:09.564Z,31.53
2022-12-14T22:32:38.362Z,33.43
2022-12-14T22:35:09.588Z,34.30
2022-12-14T22:37:38.187Z,28.07
2022-12-14T22:40:08.464Z,33.10
2022-12-14T22:42:37.005Z,33.63
2022-12-14T22:45:07.799Z,33.23
2022-12-14T22:47:36.064Z,34.17
2022-12-14T22:50:04.835Z,35.83
2022-12-14T22:52:33.165Z,39.20
2022-12-14T22:55:01.883Z,37.00
2022-12-14T22:57:31.342Z,36.27
2022-12-14T23:00:11.338Z,34.37
2022-12-14T23:02:41.475Z,31.17
2022-12-14T23:05:12.536Z,34.60
2022-12-14T23:07:42.743Z,35.90
2022-12-14T23:10:28.731Z,40.78
2022-12-14T23:13:14.513Z,36.57
2022-12-14T23:16:01.353Z,34.63
2022-12-14T23:18:46.939Z,41.23
2022-12-14T23:21:33.244Z,39.42
2022-12-14T23:24:18.941Z,38.17
2022-12-14T23:27:09.412Z,38.03
2022-12-14T23:29:56.325Z,38.57
2022-12-14T23:32:43.541Z,32.80
2022-12-14T23:35:29.414Z,34.97
2022-12-14T23:38:15.446Z,37.63
2022-12-14T23:41:01.053Z,36.57
2022-12-14T23:43:47.194Z,37.92
2022-12-14T23:46:33.068Z,37.63
2022-12-14T23:49:20.210Z,36.73
2022-12-14T23:52:06.214Z,33.77
2022-12-14T23:54:51.802Z,37.57
2022-12-14T23:57:37.751Z,35.50
